sensor_id;sensor_type;location;lat;lon;timestamp;pressure;altitude;pressure_sealevel;temperature;humidity
64668;BME280;51077;42.716;23.344;2022-12-08T00:00:47;95209.88;;;7.73;62.64
64668;BME280;51077;42.716;23.344;2022-12-08T00:03:13;95218.59;;;7.72;62.72
64668;BME280;51077;42.716;23.344;2022-12-08T00:05:46;95223.31;;;7.71;62.74
64668;BME280;51077;42.716;23.344;2022-12-08T00:08:31;95228.25;;;7.67;62.31
64668;BME280;51077;42.716;23.344;2022-12-08T00:11:15;95224.78;;;7.67;62.48
64668;BME280;51077;42.716;23.344;2022-12-08T00:13:41;95230.50;;;7.63;62.44
64668;BME280;51077;42.716;23.344;2022-12-08T00:16:07;95231.47;;;7.60;62.36
64668;BME280;51077;42.716;23.344;2022-12-08T00:18:32;95230.72;;;7.60;62.31
64668;BME280;51077;42.716;23.344;2022-12-08T00:20:58;95233.22;;;7.58;62.68
64668;BME280;51077;42.716;23.344;2022-12-08T00:23:24;95239.16;;;7.56;62.72
64668;BME280;51077;42.716;23.344;2022-12-08T00:25:49;95238.16;;;7.53;62.38
64668;BME280;51077;42.716;23.344;2022-12-08T00:28:15;95239.38;;;7.52;62.49
64668;BME280;51077;42.716;23.344;2022-12-08T00:30:41;95244.09;;;7.52;62.28
64668;BME280;51077;42.716;23.344;2022-12-08T00:33:07;95230.94;;;7.50;62.49
64668;BME280;51077;42.716;23.344;2022-12-08T00:35:33;95234.94;;;7.49;62.56
64668;BME280;51077;42.716;23.344;2022-12-08T00:37:59;95245.56;;;7.47;62.49
64668;BME280;51077;42.716;23.344;2022-12-08T00:40:24;95245.34;;;7.45;62.45
64668;BME280;51077;42.716;23.344;2022-12-08T00:42:50;95252.50;;;7.43;62.38
64668;BME280;51077;42.716;23.344;2022-12-08T00:45:15;95254.75;;;7.44;62.30
64668;BME280;51077;42.716;23.344;2022-12-08T00:47:41;95248.78;;;7.40;62.37
64668;BME280;51077;42.716;23.344;2022-12-08T00:50:06;95257.00;;;7.40;62.46
64668;BME280;51077;42.716;23.344;2022-12-08T00:52:32;95244.56;;;7.39;62.45
64668;BME280;51077;42.716;23.344;2022-12-08T00:54:57;95248.28;;;7.36;62.38
64668;BME280;51077;42.716;23.344;2022-12-08T00:57:23;95243.28;;;7.35;62.52
64668;BME280;51077;42.716;23.344;2022-12-08T00:59:48;95246.53;;;7.33;62.47
64668;BME280;51077;42.716;23.344;2022-12-08T01:02:14;95256.19;;;7.34;62.26
64668;BME280;51077;42.716;23.344;2022-12-08T01:04:39;95252.00;;;7.33;62.37
64668;BME280;51077;42.716;23.344;2022-12-08T01:07:06;95241.06;;;7.33;62.68
64668;BME280;51077;42.716;23.344;2022-12-08T01:09:31;95241.06;;;7.33;62.61
64668;BME280;51077;42.716;23.344;2022-12-08T01:11:57;95238.34;;;7.33;62.65
64668;BME280;51077;42.716;23.344;2022-12-08T01:14:22;95236.34;;;7.34;62.31
64668;BME280;51077;42.716;23.344;2022-12-08T01:16:47;95241.31;;;7.35;62.19
64668;BME280;51077;42.716;23.344;2022-12-08T01:19:15;95243.28;;;7.35;62.57
64668;BME280;51077;42.716;23.344;2022-12-08T01:21:42;95242.81;;;7.36;62.22
64668;BME280;51077;42.716;23.344;2022-12-08T01:24:16;95240.56;;;7.35;62.12
64668;BME280;51077;42.716;23.344;2022-12-08T01:26:43;95241.31;;;7.35;62.53
64668;BME280;51077;42.716;23.344;2022-12-08T01:29:09;95234.63;;;7.36;62.31
64668;BME280;51077;42.716;23.344;2022-12-08T01:31:35;95224.94;;;7.35;62.44
64668;BME280;51077;42.716;23.344;2022-12-08T01:34:01;95232.66;;;7.37;62.32
64668;BME280;51077;42.716;23.344;2022-12-08T01:36:28;95235.38;;;7.37;62.22
64668;BME280;51077;42.716;23.344;2022-12-08T01:38:59;95220.97;;;7.36;62.47
64668;BME280;51077;42.716;23.344;2022-12-08T01:41:27;95226.91;;;7.35;62.04
64668;BME280;51077;42.716;23.344;2022-12-08T01:46:18;95223.44;;;7.28;62.61
64668;BME280;51077;42.716;23.344;2022-12-08T01:48:44;95221.94;;;7.27;62.19
64668;BME280;51077;42.716;23.344;2022-12-08T01:51:09;95233.34;;;7.26;62.63
64668;BME280;51077;42.716;23.344;2022-12-08T01:53:35;95218.19;;;7.25;62.61
64668;BME280;51077;42.716;23.344;2022-12-08T01:56:13;95217.44;;;7.24;62.67
64668;BME280;51077;42.716;23.344;2022-12-08T01:58:42;95210.50;;;7.23;62.59
64668;BME280;51077;42.716;23.344;2022-12-08T02:01:09;95209.00;;;7.22;62.54
64668;BME280;51077;42.716;23.344;2022-12-08T02:03:42;95217.19;;;7.22;62.36
64668;BME280;51077;42.716;23.344;2022-12-08T02:06:10;95211.25;;;7.18;62.52
64668;BME280;51077;42.716;23.344;2022-12-08T02:08:38;95204.25;;;7.17;62.66
64668;BME280;51077;42.716;23.344;2022-12-08T02:11:07;95210.22;;;7.16;62.65
64668;BME280;51077;42.716;23.344;2022-12-08T02:13:32;95208.00;;;7.14;62.35
64668;BME280;51077;42.716;23.344;2022-12-08T02:16:20;95211.94;;;7.13;62.62
64668;BME280;51077;42.716;23.344;2022-12-08T02:21:54;95203.75;;;7.08;62.48
64668;BME280;51077;42.716;23.344;2022-12-08T02:38:13;95219.31;;;6.96;62.55
64668;BME280;51077;42.716;23.344;2022-12-08T02:40:51;95213.59;;;6.94;63.02
64668;BME280;51077;42.716;23.344;2022-12-08T02:43:34;95210.59;;;6.92;62.59
64668;BME280;51077;42.716;23.344;2022-12-08T02:46:40;95192.00;;;6.90;62.46
64668;BME280;51077;42.716;23.344;2022-12-08T02:49:08;95194.47;;;6.88;62.70
64668;BME280;51077;42.716;23.344;2022-12-08T02:51:34;95188.25;;;6.88;62.90
64668;BME280;51077;42.716;23.344;2022-12-08T02:54:01;95194.22;;;6.86;62.74
64668;BME280;51077;42.716;23.344;2022-12-08T03:07:27;95204.09;;;6.78;62.61
64668;BME280;51077;42.716;23.344;2022-12-08T03:10:11;95200.63;;;6.77;62.47
64668;BME280;51077;42.716;23.344;2022-12-08T03:12:43;95199.63;;;6.75;62.52
64668;BME280;51077;42.716;23.344;2022-12-08T03:15:15;95197.88;;;6.72;62.80
64668;BME280;51077;42.716;23.344;2022-12-08T03:17:51;95190.16;;;6.70;62.76
64668;BME280;51077;42.716;23.344;2022-12-08T03:20:21;95199.34;;;6.67;62.73
64668;BME280;51077;42.716;23.344;2022-12-08T03:22:49;95194.34;;;6.66;63.24
64668;BME280;51077;42.716;23.344;2022-12-08T03:25:19;95195.59;;;6.65;62.78
64668;BME280;51077;42.716;23.344;2022-12-08T03:27:46;95204.25;;;6.63;62.53
64668;BME280;51077;42.716;23.344;2022-12-08T03:30:11;95203.53;;;6.63;63.06
64668;BME280;51077;42.716;23.344;2022-12-08T03:32:58;95203.53;;;6.63;62.69
64668;BME280;51077;42.716;23.344;2022-12-08T03:35:29;95196.31;;;6.60;62.90
64668;BME280;51077;42.716;23.344;2022-12-08T03:38:10;95196.56;;;6.62;62.77
64668;BME280;51077;42.716;23.344;2022-12-08T03:40:36;95207.22;;;6.60;62.60
64668;BME280;51077;42.716;23.344;2022-12-08T03:43:02;95196.31;;;6.60;62.42
64668;BME280;51077;42.716;23.344;2022-12-08T03:45:27;95197.53;;;6.59;62.85
64668;BME280;51077;42.716;23.344;2022-12-08T03:47:53;95196.81;;;6.58;62.63
64668;BME280;51077;42.716;23.344;2022-12-08T03:50:19;95201.75;;;6.60;62.84
64668;BME280;51077;42.716;23.344;2022-12-08T03:52:44;95205.72;;;6.59;62.45
64668;BME280;51077;42.716;23.344;2022-12-08T03:55:09;95205.44;;;6.57;62.43
64668;BME280;51077;42.716;23.344;2022-12-08T03:57:35;95208.19;;;6.57;62.48
64668;BME280;51077;42.716;23.344;2022-12-08T04:00:01;95208.91;;;6.57;62.45
64668;BME280;51077;42.716;23.344;2022-12-08T04:02:27;95214.38;;;6.57;61.97
64668;BME280;51077;42.716;23.344;2022-12-08T04:04:52;95214.88;;;6.55;62.30
64668;BME280;51077;42.716;23.344;2022-12-08T04:07:18;95214.13;;;6.55;62.27
64668;BME280;51077;42.716;23.344;2022-12-08T04:09:43;95211.41;;;6.55;62.51
64668;BME280;51077;42.716;23.344;2022-12-08T04:12:09;95217.34;;;6.53;62.29
64668;BME280;51077;42.716;23.344;2022-12-08T04:14:35;95213.88;;;6.53;62.17
64668;BME280;51077;42.716;23.344;2022-12-08T04:17:00;95217.34;;;6.53;62.15
64668;BME280;51077;42.716;23.344;2022-12-08T04:19:26;95215.84;;;6.52;62.17
64668;BME280;51077;42.716;23.344;2022-12-08T04:21:51;95223.28;;;6.52;62.21
64668;BME280;51077;42.716;23.344;2022-12-08T04:24:16;95208.44;;;6.53;62.15
64668;BME280;51077;42.716;23.344;2022-12-08T04:26:42;95218.56;;;6.52;62.01
64668;BME280;51077;42.716;23.344;2022-12-08T04:29:07;95221.28;;;6.52;61.83
64668;BME280;51077;42.716;23.344;2022-12-08T04:31:33;95220.53;;;6.52;62.19
64668;BME280;51077;42.716;23.344;2022-12-08T04:33:58;95228.25;;;6.53;61.75
64668;BME280;51077;42.716;23.344;2022-12-08T04:36:23;95225.53;;;6.53;62.29
64668;BME280;51077;42.716;23.344;2022-12-08T04:38:49;95221.28;;;6.52;61.96
64668;BME280;51077;42.716;23.344;2022-12-08T04:41:14;95214.63;;;6.53;62.11
64668;BME280;51077;42.716;23.344;2022-12-08T04:43:40;95224.78;;;6.53;61.76
64668;BME280;51077;42.716;23.344;2022-12-08T04:46:08;95225.53;;;6.53;61.89
64668;BME280;51077;42.716;23.344;2022-12-08T04:48:36;95226.75;;;6.52;61.75
64668;BME280;51077;42.716;23.344;2022-12-08T04:51:02;95216.81;;;6.49;61.88
64668;BME280;51077;42.716;23.344;2022-12-08T04:53:27;95227.22;;;6.51;61.65
64668;BME280;51077;42.716;23.344;2022-12-08T04:55:53;95240.88;;;6.51;61.80
64668;BME280;51077;42.716;23.344;2022-12-08T04:58:18;95226.50;;;6.50;61.83
64668;BME280;51077;42.716;23.344;2022-12-08T05:00:44;95227.97;;;6.51;61.60
64668;BME280;51077;42.716;23.344;2022-12-08T05:03:11;95234.19;;;6.52;61.53
64668;BME280;51077;42.716;23.344;2022-12-08T05:05:36;95229.47;;;6.52;61.55
64668;BME280;51077;42.716;23.344;2022-12-08T05:08:02;95239.41;;;6.55;61.19
64668;BME280;51077;42.716;23.344;2022-12-08T05:10:27;95239.16;;;6.53;61.78
64668;BME280;51077;42.716;23.344;2022-12-08T05:12:53;95246.09;;;6.54;61.58
64668;BME280;51077;42.716;23.344;2022-12-08T05:15:18;95249.56;;;6.55;61.13
64668;BME280;51077;42.716;23.344;2022-12-08T05:17:43;95247.88;;;6.58;61.72
64668;BME280;51077;42.716;23.344;2022-12-08T05:20:09;95249.81;;;6.57;61.28
64668;BME280;51077;42.716;23.344;2022-12-08T05:22:35;95249.34;;;6.59;61.40
64668;BME280;51077;42.716;23.344;2022-12-08T05:25:00;95246.63;;;6.59;61.70
64668;BME280;51077;42.716;23.344;2022-12-08T05:27:26;95260.50;;;6.61;61.74
64668;BME280;51077;42.716;23.344;2022-12-08T05:29:51;95265.50;;;6.62;61.39
64668;BME280;51077;42.716;23.344;2022-12-08T05:32:17;95262.28;;;6.64;61.54
64668;BME280;51077;42.716;23.344;2022-12-08T05:34:42;95254.09;;;6.64;61.40
64668;BME280;51077;42.716;23.344;2022-12-08T05:37:07;95254.84;;;6.64;61.61
64668;BME280;51077;42.716;23.344;2022-12-08T05:39:33;95259.56;;;6.64;61.22
64668;BME280;51077;42.716;23.344;2022-12-08T05:41:58;95257.31;;;6.62;61.50
64668;BME280;51077;42.716;23.344;2022-12-08T05:44:24;95258.31;;;6.65;61.60
64668;BME280;51077;42.716;23.344;2022-12-08T05:46:50;95252.59;;;6.63;61.02
64668;BME280;51077;42.716;23.344;2022-12-08T05:49:15;95250.34;;;6.61;61.27
64668;BME280;51077;42.716;23.344;2022-12-08T05:51:41;95257.78;;;6.61;61.30
64668;BME280;51077;42.716;23.344;2022-12-08T05:54:06;95261.22;;;6.55;61.21
64668;BME280;51077;42.716;23.344;2022-12-08T05:56:32;95265.19;;;6.54;61.69
64668;BME280;51077;42.716;23.344;2022-12-08T05:58:57;95260.69;;;6.51;61.79
64668;BME280;51077;42.716;23.344;2022-12-08T06:01:25;95264.66;;;6.50;61.56
64668;BME280;51077;42.716;23.344;2022-12-08T06:03:52;95275.28;;;6.48;61.65
64668;BME280;51077;42.716;23.344;2022-12-08T06:06:17;95268.34;;;6.47;61.30
64668;BME280;51077;42.716;23.344;2022-12-08T06:08:43;95279.00;;;6.45;61.51
64668;BME280;51077;42.716;23.344;2022-12-08T06:11:09;95285.94;;;6.46;61.51
64668;BME280;51077;42.716;23.344;2022-12-08T06:13:34;95279.75;;;6.46;61.62
64668;BME280;51077;42.716;23.344;2022-12-08T06:16:06;95281.25;;;6.47;61.64
64668;BME280;51077;42.716;23.344;2022-12-08T06:18:32;95283.22;;;6.46;61.94
64668;BME280;51077;42.716;23.344;2022-12-08T06:21:02;95284.28;;;6.54;61.92
64668;BME280;51077;42.716;23.344;2022-12-08T06:23:28;95284.84;;;6.64;61.47
64668;BME280;51077;42.716;23.344;2022-12-08T06:25:53;95290.84;;;6.74;61.50
64668;BME280;51077;42.716;23.344;2022-12-08T06:28:19;95293.88;;;6.82;61.21
64668;BME280;51077;42.716;23.344;2022-12-08T06:30:44;95282.81;;;6.96;60.89
64668;BME280;51077;42.716;23.344;2022-12-08T06:33:09;95282.94;;;7.19;60.58
64668;BME280;51077;42.716;23.344;2022-12-08T06:35:35;95292.97;;;7.44;60.30
64668;BME280;51077;42.716;23.344;2022-12-08T06:38:01;95289.84;;;7.68;59.65
64668;BME280;51077;42.716;23.344;2022-12-08T06:40:26;95285.97;;;7.97;59.47
64668;BME280;51077;42.716;23.344;2022-12-08T06:42:52;95284.75;;;8.26;58.70
64668;BME280;51077;42.716;23.344;2022-12-08T06:45:17;95282.31;;;8.56;58.34
64668;BME280;51077;42.716;23.344;2022-12-08T06:47:43;95276.56;;;8.88;57.68
64668;BME280;51077;42.716;23.344;2022-12-08T06:50:09;95284.69;;;9.22;56.93
64668;BME280;51077;42.716;23.344;2022-12-08T06:52:35;95289.59;;;9.51;56.36
64668;BME280;51077;42.716;23.344;2022-12-08T06:55:00;95280.97;;;9.83;55.63
64668;BME280;51077;42.716;23.344;2022-12-08T06:57:26;95279.53;;;10.18;55.24
64668;BME280;51077;42.716;23.344;2022-12-08T06:59:51;95277.59;;;10.48;54.49
64668;BME280;51077;42.716;23.344;2022-12-08T07:02:17;95285.81;;;10.84;53.82
64668;BME280;51077;42.716;23.344;2022-12-08T07:04:42;95281.44;;;11.19;53.31
64668;BME280;51077;42.716;23.344;2022-12-08T07:07:08;95295.06;;;11.54;52.74
64668;BME280;51077;42.716;23.344;2022-12-08T07:09:33;95303.16;;;11.90;52.06
64668;BME280;51077;42.716;23.344;2022-12-08T07:11:59;95309.41;;;12.28;51.39
64668;BME280;51077;42.716;23.344;2022-12-08T07:14:24;95307.13;;;12.65;50.69
64668;BME280;51077;42.716;23.344;2022-12-08T07:16:50;95318.03;;;13.02;50.06
64668;BME280;51077;42.716;23.344;2022-12-08T07:19:16;95314.19;;;13.38;49.66
64668;BME280;51077;42.716;23.344;2022-12-08T07:21:42;95310.44;;;13.75;48.80
64668;BME280;51077;42.716;23.344;2022-12-08T07:24:07;95313.28;;;14.09;48.22
64668;BME280;51077;42.716;23.344;2022-12-08T07:26:33;95327.28;;;14.45;47.68
64668;BME280;51077;42.716;23.344;2022-12-08T07:28:58;95324.59;;;14.66;47.30
64668;BME280;51077;42.716;23.344;2022-12-08T07:31:25;95326.56;;;14.79;47.08
64668;BME280;51077;42.716;23.344;2022-12-08T07:33:52;95330.47;;;15.04;46.22
64668;BME280;51077;42.716;23.344;2022-12-08T07:36:18;95333.56;;;15.22;45.93
64668;BME280;51077;42.716;23.344;2022-12-08T07:38:44;95330.94;;;15.16;46.01
64668;BME280;51077;42.716;23.344;2022-12-08T07:41:17;95326.63;;;15.07;46.03
64668;BME280;51077;42.716;23.344;2022-12-08T07:43:43;95320.41;;;15.15;45.47
64668;BME280;51077;42.716;23.344;2022-12-08T07:46:12;95319.09;;;15.08;45.78
64668;BME280;51077;42.716;23.344;2022-12-08T07:48:38;95321.91;;;14.95;46.13
64668;BME280;51077;42.716;23.344;2022-12-08T07:51:04;95322.88;;;14.76;46.36
64668;BME280;51077;42.716;23.344;2022-12-08T07:53:30;95321.56;;;14.56;46.72
64668;BME280;51077;42.716;23.344;2022-12-08T07:55:56;95323.50;;;14.35;47.15
64668;BME280;51077;42.716;23.344;2022-12-08T07:58:21;95326.94;;;14.15;47.50
64668;BME280;51077;42.716;23.344;2022-12-08T08:00:47;95320.81;;;14.08;47.54
64668;BME280;51077;42.716;23.344;2022-12-08T08:03:12;95314.44;;;14.14;47.57
64668;BME280;51077;42.716;23.344;2022-12-08T08:05:38;95314.31;;;14.19;47.60
64668;BME280;51077;42.716;23.344;2022-12-08T08:08:03;95317.00;;;14.12;47.77
64668;BME280;51077;42.716;23.344;2022-12-08T08:10:29;95314.69;;;14.02;47.73
64668;BME280;51077;42.716;23.344;2022-12-08T08:12:57;95324.56;;;13.98;47.76
64668;BME280;51077;42.716;23.344;2022-12-08T08:15:23;95322.13;;;13.94;48.08
64668;BME280;51077;42.716;23.344;2022-12-08T08:17:50;95317.22;;;14.00;48.08
64668;BME280;51077;42.716;23.344;2022-12-08T08:20:16;95320.19;;;14.02;47.96
64668;BME280;51077;42.716;23.344;2022-12-08T08:22:44;95328.25;;;14.00;48.01
64668;BME280;51077;42.716;23.344;2022-12-08T08:25:10;95330.06;;;13.98;48.20
64668;BME280;51077;42.716;23.344;2022-12-08T08:27:35;95319.34;;;13.94;48.16
64668;BME280;51077;42.716;23.344;2022-12-08T08:30:00;95333.47;;;13.91;48.22
64668;BME280;51077;42.716;23.344;2022-12-08T08:32:26;95332.31;;;13.86;48.43
64668;BME280;51077;42.716;23.344;2022-12-08T08:34:51;95334.66;;;13.82;48.56
64668;BME280;51077;42.716;23.344;2022-12-08T08:37:17;95323.94;;;13.78;48.47
64668;BME280;51077;42.716;23.344;2022-12-08T08:39:42;95323.94;;;13.78;48.42
64668;BME280;51077;42.716;23.344;2022-12-08T08:42:07;95335.19;;;13.80;48.39
64668;BME280;51077;42.716;23.344;2022-12-08T08:44:33;95325.81;;;13.83;48.36
64668;BME280;51077;42.716;23.344;2022-12-08T08:46:58;95336.22;;;13.91;48.32
64668;BME280;51077;42.716;23.344;2022-12-08T08:49:24;95325.97;;;14.25;47.85
64668;BME280;51077;42.716;23.344;2022-12-08T08:51:49;95310.31;;;14.54;47.20
64668;BME280;51077;42.716;23.344;2022-12-08T08:54:15;95320.63;;;14.75;46.98
64668;BME280;51077;42.716;23.344;2022-12-08T08:56:40;95323.13;;;14.86;46.69
64668;BME280;51077;42.716;23.344;2022-12-08T08:59:06;95315.91;;;15.04;46.52
64668;BME280;51077;42.716;23.344;2022-12-08T09:01:31;95315.69;;;15.23;46.06
64668;BME280;51077;42.716;23.344;2022-12-08T09:03:57;95312.16;;;15.43;45.67
64668;BME280;51077;42.716;23.344;2022-12-08T09:06:23;95316.59;;;15.75;45.18
64668;BME280;51077;42.716;23.344;2022-12-08T09:08:49;95296.97;;;16.01;44.65
64668;BME280;51077;42.716;23.344;2022-12-08T09:11:15;95289.53;;;16.40;44.00
64668;BME280;51077;42.716;23.344;2022-12-08T09:13:43;95292.25;;;16.92;43.14
64668;BME280;51077;42.716;23.344;2022-12-08T09:16:10;95292.25;;;17.30;42.52
64668;BME280;51077;42.716;23.344;2022-12-08T09:18:35;95284.59;;;17.76;41.63
64668;BME280;51077;42.716;23.344;2022-12-08T09:21:06;95288.66;;;18.31;40.97
64668;BME280;51077;42.716;23.344;2022-12-08T09:23:33;95289.88;;;18.78;40.08
64668;BME280;51077;42.716;23.344;2022-12-08T09:25:58;95294.44;;;19.16;39.52
64668;BME280;51077;42.716;23.344;2022-12-08T09:28:24;95294.19;;;19.46;38.86
64668;BME280;51077;42.716;23.344;2022-12-08T09:30:50;95286.03;;;19.83;38.20
64668;BME280;51077;42.716;23.344;2022-12-08T09:33:16;95282.41;;;20.07;37.75
64668;BME280;51077;42.716;23.344;2022-12-08T09:35:41;95282.28;;;20.32;37.33
64668;BME280;51077;42.716;23.344;2022-12-08T09:38:06;95279.69;;;20.62;36.98
64668;BME280;51077;42.716;23.344;2022-12-08T09:40:56;95282.16;;;20.84;36.49
64668;BME280;51077;42.716;23.344;2022-12-08T09:43:42;95273.28;;;21.05;36.35
64668;BME280;51077;42.716;23.344;2022-12-08T09:46:13;95273.88;;;21.14;36.37
64668;BME280;51077;42.716;23.344;2022-12-08T09:48:43;95278.31;;;21.17;35.95
64668;BME280;51077;42.716;23.344;2022-12-08T09:51:12;95275.97;;;21.23;35.91
64668;BME280;51077;42.716;23.344;2022-12-08T09:53:49;95261.28;;;21.22;35.68
64668;BME280;51077;42.716;23.344;2022-12-08T09:56:22;95256.84;;;21.19;36.00
64668;BME280;51077;42.716;23.344;2022-12-08T09:58:58;95253.75;;;21.15;36.02
64668;BME280;51077;42.716;23.344;2022-12-08T10:01:32;95236.53;;;20.99;36.06
64668;BME280;51077;42.716;23.344;2022-12-08T10:03:58;95242.56;;;20.96;35.97
64668;BME280;51077;42.716;23.344;2022-12-08T10:06:34;95236.94;;;20.86;36.18
64668;BME280;51077;42.716;23.344;2022-12-08T10:14:23;95233.47;;;21.05;35.82
64668;BME280;51077;42.716;23.344;2022-12-08T10:16:56;95228.28;;;21.38;35.18
64668;BME280;51077;42.716;23.344;2022-12-08T10:19:26;95225.38;;;21.65;35.40
64668;BME280;51077;42.716;23.344;2022-12-08T10:21:52;95223.13;;;22.02;34.77
64668;BME280;51077;42.716;23.344;2022-12-08T10:24:35;95223.00;;;22.29;34.24
64668;BME280;51077;42.716;23.344;2022-12-08T10:27:04;95224.09;;;22.55;33.95
64668;BME280;51077;42.716;23.344;2022-12-08T10:29:32;95213.97;;;22.81;33.24
64668;BME280;51077;42.716;23.344;2022-12-08T10:31:58;95213.28;;;23.02;32.94
64668;BME280;51077;42.716;23.344;2022-12-08T10:34:25;95210.47;;;23.12;32.95
64668;BME280;51077;42.716;23.344;2022-12-08T10:36:52;95207.06;;;23.14;32.72
64668;BME280;51077;42.716;23.344;2022-12-08T10:39:36;95210.41;;;23.22;32.93
64668;BME280;51077;42.716;23.344;2022-12-08T10:42:17;95201.06;;;23.29;32.42
64668;BME280;51077;42.716;23.344;2022-12-08T10:47:15;95195.59;;;23.74;32.22
64668;BME280;51077;42.716;23.344;2022-12-08T10:49:44;95195.09;;;23.99;31.39
64668;BME280;51077;42.716;23.344;2022-12-08T10:52:21;95183.72;;;24.30;31.28
64668;BME280;51077;42.716;23.344;2022-12-08T10:54:53;95188.78;;;24.67;30.70
64668;BME280;51077;42.716;23.344;2022-12-08T10:57:20;95182.19;;;24.97;30.76
64668;BME280;51077;42.716;23.344;2022-12-08T10:59:46;95174.50;;;25.21;30.20
64668;BME280;51077;42.716;23.344;2022-12-08T11:02:18;95174.09;;;25.39;29.73
64668;BME280;51077;42.716;23.344;2022-12-08T11:04:44;95172.03;;;25.39;29.77
64668;BME280;51077;42.716;23.344;2022-12-08T11:07:11;95165.06;;;25.28;29.94
64668;BME280;51077;42.716;23.344;2022-12-08T11:09:52;95162.00;;;25.36;29.84
64668;BME280;51077;42.716;23.344;2022-12-08T11:12:20;95164.28;;;25.51;29.81
64668;BME280;51077;42.716;23.344;2022-12-08T11:14:55;95158.38;;;25.59;29.46
64668;BME280;51077;42.716;23.344;2022-12-08T11:20:00;95144.00;;;25.53;29.53
64668;BME280;51077;42.716;23.344;2022-12-08T11:22:36;95146.72;;;25.39;29.59
64668;BME280;51077;42.716;23.344;2022-12-08T11:27:45;95145.47;;;25.42;29.65
64668;BME280;51077;42.716;23.344;2022-12-08T11:30:18;95132.53;;;25.49;29.28
64668;BME280;51077;42.716;23.344;2022-12-08T11:32:47;95126.34;;;25.64;29.54
64668;BME280;51077;42.716;23.344;2022-12-08T11:35:20;95120.56;;;25.74;29.43
64668;BME280;51077;42.716;23.344;2022-12-08T11:37:47;95121.25;;;25.61;29.59
64668;BME280;51077;42.716;23.344;2022-12-08T11:40:21;95115.69;;;25.37;29.59
64668;BME280;51077;42.716;23.344;2022-12-08T11:45:32;95120.47;;;24.74;30.16
64668;BME280;51077;42.716;23.344;2022-12-08T11:50:52;95123.44;;;24.19;30.69
64668;BME280;51077;42.716;23.344;2022-12-08T11:53:45;95120.03;;;24.09;30.98
64668;BME280;51077;42.716;23.344;2022-12-08T11:56:19;95113.56;;;24.06;30.94
64668;BME280;51077;42.716;23.344;2022-12-08T11:58:53;95121.34;;;23.96;30.83
64668;BME280;51077;42.716;23.344;2022-12-08T12:01:24;95121.44;;;23.87;31.31
64668;BME280;51077;42.716;23.344;2022-12-08T12:13:03;95102.81;;;23.25;32.10
64668;BME280;51077;42.716;23.344;2022-12-08T12:18:56;95105.03;;;22.74;32.79
64668;BME280;51077;42.716;23.344;2022-12-08T12:21:06;95097.53;;;22.45;33.26
64668;BME280;51077;42.716;23.344;2022-12-08T12:26:06;95101.66;;;22.03;33.84
64668;BME280;51077;42.716;23.344;2022-12-08T12:28:47;95093.16;;;21.92;33.84
64668;BME280;51077;42.716;23.344;2022-12-08T12:31:20;95089.38;;;21.77;34.25
64668;BME280;51077;42.716;23.344;2022-12-08T12:33:47;95083.38;;;21.62;34.56
64668;BME280;51077;42.716;23.344;2022-12-08T12:36:14;95089.25;;;21.56;34.54
64668;BME280;51077;42.716;23.344;2022-12-08T12:38:48;95089.53;;;21.50;34.72
64668;BME280;51077;42.716;23.344;2022-12-08T12:42:31;95078.09;;;21.46;34.55
64668;BME280;51077;42.716;23.344;2022-12-08T12:44:35;95080.31;;;21.38;34.70
64668;BME280;51077;42.716;23.344;2022-12-08T12:47:04;95076.91;;;21.30;35.06
64668;BME280;51077;42.716;23.344;2022-12-08T12:52:44;95095.72;;;21.10;35.08
64668;BME280;51077;42.716;23.344;2022-12-08T12:57:38;95082.63;;;20.83;35.61
64668;BME280;51077;42.716;23.344;2022-12-08T13:07:31;95058.81;;;20.17;36.81
64668;BME280;51077;42.716;23.344;2022-12-08T13:12:42;95054.41;;;19.77;37.28
64668;BME280;51077;42.716;23.344;2022-12-08T13:15:18;95064.28;;;19.61;37.42
64668;BME280;51077;42.716;23.344;2022-12-08T13:17:46;95050.28;;;19.51;37.73
64668;BME280;51077;42.716;23.344;2022-12-08T13:20:23;95046.69;;;19.41;37.71
64668;BME280;51077;42.716;23.344;2022-12-08T13:30:45;95054.19;;;19.21;38.20
64668;BME280;51077;42.716;23.344;2022-12-08T13:33:22;95056.31;;;19.13;38.30
64668;BME280;51077;42.716;23.344;2022-12-08T13:36:21;95062.56;;;19.03;38.60
64668;BME280;51077;42.716;23.344;2022-12-08T13:38:53;95059.94;;;18.88;38.70
64668;BME280;51077;42.716;23.344;2022-12-08T13:41:23;95056.72;;;18.74;39.05
64668;BME280;51077;42.716;23.344;2022-12-08T13:43:58;95060.94;;;18.58;39.33
64668;BME280;51077;42.716;23.344;2022-12-08T13:46:45;95052.56;;;18.41;39.58
64668;BME280;51077;42.716;23.344;2022-12-08T13:49:17;95051.66;;;18.21;39.94
64668;BME280;51077;42.716;23.344;2022-12-08T13:51:48;95057.72;;;18.02;40.39
64668;BME280;51077;42.716;23.344;2022-12-08T13:54:24;95057.66;;;17.84;40.58
64668;BME280;51077;42.716;23.344;2022-12-08T13:56:51;95059.44;;;17.65;40.87
64668;BME280;51077;42.716;23.344;2022-12-08T14:01:50;95066.63;;;17.27;41.59
64668;BME280;51077;42.716;23.344;2022-12-08T14:04:20;95065.25;;;17.11;41.79
64668;BME280;51077;42.716;23.344;2022-12-08T14:06:58;95072.66;;;16.93;42.65
64668;BME280;51077;42.716;23.344;2022-12-08T14:09:33;95061.06;;;16.79;42.81
64668;BME280;51077;42.716;23.344;2022-12-08T14:12:00;95059.63;;;16.63;42.94
64668;BME280;51077;42.716;23.344;2022-12-08T14:14:33;95070.16;;;16.49;43.24
64668;BME280;51077;42.716;23.344;2022-12-08T14:17:03;95070.19;;;16.34;43.50
64668;BME280;51077;42.716;23.344;2022-12-08T14:19:30;95065.56;;;16.21;43.60
64668;BME280;51077;42.716;23.344;2022-12-08T14:24:32;95062.44;;;15.94;44.32
64668;BME280;51077;42.716;23.344;2022-12-08T14:27:02;95064.25;;;15.84;44.46
64668;BME280;51077;42.716;23.344;2022-12-08T14:30:34;95069.22;;;15.70;44.75
64668;BME280;51077;42.716;23.344;2022-12-08T14:32:57;95059.00;;;15.57;45.04
64668;BME280;51077;42.716;23.344;2022-12-08T14:37:56;95061.00;;;15.34;45.25